Mtm New York — 9V2992 — position and weather

sailwx.info

Track history (hours):
 
Tides and Currents Weather Stations Pressure Air Temp Water Temp Dewpoint Dewpoint Depression Visibility Wind Speed Wind Dir Waves Ship Positions

Mtm New York

Last reported at 2017-Nov-18 11:55 UTC. Time now 2017-Nov-25 07:43 UTC.
Position N 31°22' E 032°20'.

Length 179 m; draft 12 m.

Type: Tanker. MMSI: 564751000.

Date/timePositionNaut miles runAvg speedWind from/ knotsBaromVisibWave heightAir tempDewpointWater temp
2017-Nov-18 11:55N 31°22' E 032°20'0 0.0
2017-Nov-18 10:08N 31°22' E 032°20'0 0.0
2017-Nov-18 10:00N 31°22' E 032°20'0 0.0
2017-Nov-18 09:30N 31°22' E 032°20'0 0.0
2017-Nov-18 02:28N 31°22' E 032°20'12 5.5
2017-Nov-18 00:15N 31°32' E 032°12'313.3
2017-Nov-18 00:00N 31°34' E 032°09'36313.5
2017-Nov-16 21:06N 33°25' E 025°19'114.1
2017-Nov-16 21:00N 33°25' E 025°17'  
2017-Nov-12 18:31N 36°30' W 000°45'014.0
2017-Nov-12 18:30N 36°30' W 000°45'21614.5
2017-Nov-12 03:36N 36°01' W 005°11'113.8
2017-Nov-12 03:30N 36°01' W 005°13'713.7
2017-Nov-12 03:00N 35°60' W 005°21'713.8
2017-Nov-12 02:30N 35°57' W 005°29'53111.6
2017-Nov-10 04:41N 31°35' W 014°45'310.0
2017-Nov-10 04:21N 31°33' W 014°48'410.0
2017-Nov-10 03:58N 31°30' W 014°51'5 9.9
2017-Nov-10 03:29N 31°27' W 014°56'710.0
2017-Nov-10 02:46N 31°23' W 015°03'610.0
2017-Nov-10 02:11N 31°20' W 015°08'2 9.9
2017-Nov-10 02:00N 31°19' W 015°10'  
Track history (hours):
 
Tides and Currents Weather Stations Pressure Air Temp Water Temp Dewpoint Dewpoint Depression Visibility Wind Speed Wind Dir Waves Ship Positions

Mtm New York

Last reported at 2017-Nov-18 11:55 UTC. Time now 2017-Nov-25 07:43 UTC.
Position N 31°22' E 032°20'.

Length 179 m; draft 12 m.

Type: Tanker. MMSI: 564751000.

Date/timePositionNaut miles runAvg speedWind from/ knotsBaromVisibWave heightAir tempDewpointWater temp
2017-Nov-18 11:55N 31°22' E 032°20'0 0.0
2017-Nov-18 10:08N 31°22' E 032°20'0 0.0
2017-Nov-18 10:00N 31°22' E 032°20'0 0.0
2017-Nov-18 09:30N 31°22' E 032°20'0 0.0
2017-Nov-18 02:28N 31°22' E 032°20'12 5.5
2017-Nov-18 00:15N 31°32' E 032°12'313.3
2017-Nov-18 00:00N 31°34' E 032°09'36313.5
2017-Nov-16 21:06N 33°25' E 025°19'114.1
2017-Nov-16 21:00N 33°25' E 025°17'  
2017-Nov-12 18:31N 36°30' W 000°45'014.0
2017-Nov-12 18:30N 36°30' W 000°45'21614.5
2017-Nov-12 03:36N 36°01' W 005°11'113.8
2017-Nov-12 03:30N 36°01' W 005°13'713.7
2017-Nov-12 03:00N 35°60' W 005°21'713.8
2017-Nov-12 02:30N 35°57' W 005°29'53111.6
2017-Nov-10 04:41N 31°35' W 014°45'310.0
2017-Nov-10 04:21N 31°33' W 014°48'410.0
2017-Nov-10 03:58N 31°30' W 014°51'5 9.9
2017-Nov-10 03:29N 31°27' W 014°56'710.0
2017-Nov-10 02:46N 31°23' W 015°03'610.0
2017-Nov-10 02:11N 31°20' W 015°08'2 9.9
2017-Nov-10 02:00N 31°19' W 015°10'  

Dump ship's entire track history